createdAt,value
2017-07-28T00:01:50.644Z,90.34
2017-07-28T00:04:18.095Z,90.82
2017-07-28T00:06:45.564Z,91.05
2017-07-28T00:09:13.009Z,91.29
2017-07-28T00:11:40.477Z,90.93
2017-07-28T00:14:07.961Z,91.55
2017-07-28T00:16:35.405Z,91.67
2017-07-28T00:19:02.849Z,90.70
2017-07-28T00:21:30.322Z,90.52
2017-07-28T00:23:57.762Z,91.39
2017-07-28T00:26:25.543Z,91.32
2017-07-28T00:28:52.984Z,91.00
2017-07-28T00:31:20.720Z,90.91
2017-07-28T00:33:48.185Z,90.53
2017-07-28T00:36:15.635Z,91.31
2017-07-28T00:38:43.081Z,92.16
2017-07-28T00:41:10.546Z,92.48
2017-07-28T00:43:37.995Z,92.82
2017-07-28T00:46:05.445Z,92.10
2017-07-28T00:48:33.306Z,92.80
2017-07-28T00:51:00.776Z,91.47
2017-07-28T00:53:28.213Z,91.81
2017-07-28T00:55:55.685Z,92.35
2017-07-28T00:58:23.134Z,92.31
2017-07-28T01:00:50.604Z,92.33
2017-07-28T01:03:18.046Z,93.04
2017-07-28T01:05:45.494Z,92.35
2017-07-28T01:08:12.953Z,92.49
2017-07-28T01:10:40.395Z,92.78
2017-07-28T01:13:08.191Z,93.37
2017-07-28T01:15:35.636Z,93.25
2017-07-28T01:18:03.076Z,93.48
2017-07-28T01:20:30.547Z,92.73
2017-07-28T01:22:58.017Z,93.29
2017-07-28T01:25:25.463Z,93.15
2017-07-28T01:27:52.938Z,93.83
2017-07-28T01:30:20.383Z,94.38
2017-07-28T01:32:47.831Z,93.00
2017-07-28T01:35:15.296Z,93.81
2017-07-28T01:37:42.746Z,93.06
2017-07-28T01:40:10.221Z,92.71
2017-07-28T01:42:37.673Z,93.49
2017-07-28T01:45:05.141Z,93.57
2017-07-28T01:47:32.592Z,93.37
2017-07-28T01:50:00.036Z,93.46
2017-07-28T01:52:27.692Z,94.18
2017-07-28T01:54:55.347Z,94.67
2017-07-28T01:57:22.781Z,95.10
2017-07-28T01:59:50.228Z,95.36
2017-07-28T02:02:17.717Z,95.51
2017-07-28T02:04:45.161Z,95.46
2017-07-28T02:07:12.609Z,96.06
2017-07-28T02:09:40.073Z,96.55
2017-07-28T02:12:07.601Z,96.84
2017-07-28T02:14:35.077Z,96.65
2017-07-28T02:17:02.854Z,96.50
2017-07-28T02:19:30.337Z,96.26
2017-07-28T02:21:57.790Z,96.06
2017-07-28T02:24:25.238Z,96.64
2017-07-28T02:26:52.705Z,96.80
2017-07-28T02:29:20.165Z,97.01
2017-07-28T02:31:47.640Z,96.48
2017-07-28T02:34:15.081Z,96.49
2017-07-28T02:36:42.529Z,96.72
2017-07-28T02:39:10.001Z,96.58
2017-07-28T02:41:37.457Z,96.82
2017-07-28T02:44:05.145Z,96.31
2017-07-28T02:46:32.590Z,96.03
2017-07-28T02:49:00.041Z,96.22
2017-07-28T02:51:27.510Z,95.96
2017-07-28T02:53:54.963Z,95.95
2017-07-28T02:56:22.431Z,96.25
2017-07-28T02:58:49.884Z,96.64
2017-07-28T03:01:17.469Z,97.17
2017-07-28T03:03:44.904Z,97.39
2017-07-28T03:06:12.352Z,97.39
2017-07-28T03:08:39.825Z,97.05
2017-07-28T03:11:07.293Z,96.97
2017-07-28T03:13:34.741Z,96.98
2017-07-28T03:16:02.208Z,96.94
2017-07-28T03:18:29.641Z,96.70
2017-07-28T03:20:57.105Z,96.76
2017-07-28T03:23:24.719Z,97.10
2017-07-28T03:25:52.169Z,97.15
2017-07-28T03:28:19.621Z,97.34
2017-07-28T03:30:47.091Z,96.76
2017-07-28T03:33:14.633Z,96.74
2017-07-28T03:35:42.080Z,96.50
2017-07-28T03:38:09.549Z,96.16
2017-07-28T03:40:36.992Z,96.49
2017-07-28T03:43:04.437Z,96.52
2017-07-28T03:45:31.914Z,96.67
2017-07-28T03:47:59.368Z,91.41
2017-07-28T03:50:26.829Z,95.17
2017-07-28T03:52:54.296Z,95.86
2017-07-28T03:55:21.737Z,96.56
2017-07-28T03:57:49.200Z,96.18
2017-07-28T04:00:16.661Z,96.32
2017-07-28T04:02:44.134Z,96.48
2017-07-28T04:05:11.584Z,96.44
2017-07-28T04:07:39.071Z,96.17
2017-07-28T04:10:06.514Z,96.03
2017-07-28T04:12:33.964Z,95.67
2017-07-28T04:15:01.765Z,95.77
2017-07-28T04:17:29.209Z,95.96
2017-07-28T04:19:56.654Z,95.62
2017-07-28T04:22:24.143Z,95.99
2017-07-28T04:24:51.587Z,95.97
2017-07-28T04:27:19.054Z,96.14
2017-07-28T04:29:46.504Z,96.09
2017-07-28T04:32:13.973Z,95.81
2017-07-28T04:34:41.421Z,95.19
2017-07-28T04:37:08.866Z,95.56
2017-07-28T04:39:36.346Z,95.35
2017-07-28T04:42:03.795Z,95.03
2017-07-28T04:44:31.257Z,94.34
2017-07-28T04:46:58.723Z,94.88
2017-07-28T04:49:26.192Z,94.37
2017-07-28T04:51:53.636Z,95.39
2017-07-28T04:54:21.084Z,95.37
2017-07-28T04:56:48.550Z,93.61
2017-07-28T04:59:16.013Z,93.60
2017-07-28T05:01:43.465Z,94.23
2017-07-28T05:04:10.930Z,93.53
2017-07-28T05:06:38.381Z,94.13
2017-07-28T05:09:05.850Z,93.85
2017-07-28T05:11:33.303Z,93.48
2017-07-28T05:14:00.784Z,93.08
2017-07-28T05:16:28.236Z,92.70
2017-07-28T05:18:55.681Z,92.34
2017-07-28T05:21:23.150Z,92.95
2017-07-28T05:23:50.595Z,93.16
2017-07-28T05:26:18.033Z,92.14
2017-07-28T05:28:45.518Z,93.07
2017-07-28T05:31:12.970Z,91.72
2017-07-28T05:33:40.420Z,92.89
2017-07-28T05:36:07.902Z,90.46
2017-07-28T05:38:35.345Z,89.92
2017-07-28T05:41:02.792Z,89.08
2017-07-28T05:43:30.265Z,89.37
2017-07-28T05:45:57.716Z,88.83
2017-07-28T05:48:25.329Z,88.18
2017-07-28T05:50:52.788Z,88.37
2017-07-28T05:53:20.230Z,89.47
2017-07-28T05:55:47.700Z,88.33
2017-07-28T05:58:15.146Z,87.84
2017-07-28T06:00:42.621Z,88.68
2017-07-28T06:03:10.092Z,88.54
2017-07-28T06:05:37.556Z,88.95
2017-07-28T06:08:05.033Z,88.66
2017-07-28T06:10:32.476Z,89.68
2017-07-28T06:12:59.921Z,90.21
2017-07-28T06:15:27.393Z,87.54
2017-07-28T06:17:54.841Z,89.11
2017-07-28T06:20:22.308Z,88.42
2017-07-28T06:22:49.744Z,88.43
2017-07-28T06:25:17.215Z,88.63
2017-07-28T06:27:44.683Z,88.16
2017-07-28T06:30:12.127Z,87.66
2017-07-28T06:32:39.591Z,87.14
2017-07-28T06:35:07.298Z,86.33
2017-07-28T06:37:34.747Z,87.33
2017-07-28T06:40:02.192Z,87.94
2017-07-28T06:42:29.657Z,87.06
2017-07-28T06:44:57.095Z,87.37
2017-07-28T06:47:24.538Z,86.96
2017-07-28T06:49:52.009Z,85.38
2017-07-28T06:52:19.448Z,86.83
2017-07-28T06:54:46.923Z,83.11
2017-07-28T06:57:14.759Z,83.22
2017-07-28T06:59:42.200Z,80.23
2017-07-28T07:02:09.649Z,82.48
2017-07-28T07:07:13.776Z,79.87
2017-07-28T07:09:41.245Z,80.92
2017-07-28T07:12:08.696Z,80.92
2017-07-28T07:14:36.267Z,80.92
2017-07-28T07:17:03.945Z,80.11
2017-07-28T07:19:31.392Z,78.71
2017-07-28T07:21:58.848Z,78.36
2017-07-28T07:24:26.324Z,78.62
2017-07-28T07:26:53.772Z,78.29
2017-07-28T07:29:21.224Z,77.74
2017-07-28T07:31:48.694Z,77.67
2017-07-28T07:34:16.144Z,77.42
2017-07-28T07:36:43.613Z,76.81
2017-07-28T07:39:11.057Z,76.23
2017-07-28T07:41:38.849Z,78.11
2017-07-28T07:44:06.289Z,77.29
2017-07-28T07:46:33.734Z,75.46
2017-07-28T07:49:01.224Z,76.05
2017-07-28T07:51:28.661Z,75.03
2017-07-28T07:53:56.106Z,74.66
2017-07-28T07:56:23.582Z,76.61
2017-07-28T07:58:51.025Z,74.75
2017-07-28T08:01:18.489Z,74.36
2017-07-28T08:03:45.952Z,76.51
2017-07-28T08:06:13.403Z,73.36
2017-07-28T08:08:40.868Z,73.02
2017-07-28T08:11:08.318Z,72.93
2017-07-28T08:13:35.793Z,71.64
2017-07-28T08:16:03.232Z,71.04
2017-07-28T08:18:30.711Z,69.88
2017-07-28T08:20:58.160Z,70.02
2017-07-28T08:23:25.605Z,70.65
2017-07-28T08:25:53.076Z,69.08
2017-07-28T08:28:20.561Z,68.54
2017-07-28T08:30:48.001Z,66.80
2017-07-28T08:33:15.446Z,68.37
2017-07-28T08:35:42.916Z,67.22
2017-07-28T08:38:10.376Z,67.24
2017-07-28T08:40:37.845Z,67.13
2017-07-28T08:43:05.324Z,68.18
2017-07-28T08:45:32.894Z,67.18
2017-07-28T08:48:00.342Z,66.77
2017-07-28T08:50:27.787Z,64.73
2017-07-28T08:52:55.253Z,65.54
2017-07-28T08:55:22.700Z,65.73
2017-07-28T08:57:50.161Z,64.44
2017-07-28T09:00:17.613Z,65.46
2017-07-28T09:02:45.078Z,63.98
2017-07-28T09:05:12.558Z,64.35
2017-07-28T09:07:40.032Z,64.42
2017-07-28T09:10:07.482Z,62.99
2017-07-28T09:12:34.978Z,62.83
2017-07-28T09:15:02.439Z,62.93
2017-07-28T09:17:29.906Z,62.22
2017-07-28T09:19:57.374Z,62.67
2017-07-28T09:22:24.836Z,61.54
2017-07-28T09:24:52.338Z,61.60
2017-07-28T09:27:19.787Z,62.37
2017-07-28T09:29:47.250Z,60.65
2017-07-28T09:32:14.698Z,59.29
2017-07-28T09:34:42.313Z,59.53
2017-07-28T09:37:09.788Z,59.74
2017-07-28T09:39:37.232Z,59.21
2017-07-28T09:42:04.704Z,58.98
2017-07-28T09:44:32.146Z,58.42
2017-07-28T09:46:59.620Z,57.17
2017-07-28T09:49:27.133Z,57.19
2017-07-28T09:51:54.587Z,57.53
2017-07-28T09:54:22.049Z,57.42
2017-07-28T09:56:49.515Z,57.05
2017-07-28T09:59:17.186Z,55.24
2017-07-28T10:01:44.633Z,56.00
2017-07-28T10:04:12.098Z,55.44
2017-07-28T10:06:39.573Z,55.02
2017-07-28T10:09:07.026Z,53.84
2017-07-28T10:11:34.506Z,54.43
2017-07-28T10:14:01.974Z,56.04
2017-07-28T10:16:29.421Z,53.98
2017-07-28T10:18:56.883Z,53.86
2017-07-28T10:21:24.385Z,54.62
2017-07-28T10:23:51.840Z,55.42
2017-07-28T10:26:19.324Z,55.64
2017-07-28T10:28:46.770Z,54.83
2017-07-28T10:31:14.209Z,54.26
2017-07-28T10:33:41.686Z,53.75
2017-07-28T10:36:09.153Z,54.03
2017-07-28T10:38:36.607Z,54.25
2017-07-28T10:41:04.362Z,55.27
2017-07-28T10:43:31.853Z,54.65
2017-07-28T10:45:59.298Z,53.30
2017-07-28T10:48:26.760Z,53.35
2017-07-28T10:50:54.231Z,54.85
2017-07-28T10:53:21.721Z,53.14
2017-07-28T10:55:49.180Z,53.17
2017-07-28T10:58:16.643Z,52.49
2017-07-28T11:00:44.081Z,52.56
2017-07-28T11:03:11.545Z,51.92
2017-07-28T11:05:38.993Z,51.56
2017-07-28T11:08:06.485Z,51.02
2017-07-28T11:10:33.926Z,52.77
2017-07-28T11:13:01.404Z,53.74
2017-07-28T11:15:28.848Z,52.50
2017-07-28T11:17:56.298Z,52.02
2017-07-28T11:20:23.774Z,51.06
2017-07-28T11:22:51.217Z,47.65
2017-07-28T11:25:18.681Z,49.43
2017-07-28T11:27:46.133Z,49.74
2017-07-28T11:30:13.593Z,49.77
2017-07-28T11:32:41.060Z,48.97
2017-07-28T11:35:08.518Z,47.87
2017-07-28T11:37:35.981Z,46.37
2017-07-28T11:40:03.449Z,47.82
2017-07-28T11:42:30.925Z,48.97
2017-07-28T11:44:58.384Z,49.19
2017-07-28T11:47:25.864Z,50.67
2017-07-28T11:49:53.329Z,51.44
2017-07-28T11:52:20.798Z,50.96
2017-07-28T11:54:48.249Z,50.94
2017-07-28T11:57:15.711Z,51.81
2017-07-28T11:59:43.185Z,49.62
2017-07-28T12:02:10.648Z,50.25
2017-07-28T12:04:38.114Z,49.97
2017-07-28T12:07:05.597Z,51.28
2017-07-28T12:09:33.047Z,52.42
2017-07-28T12:12:00.765Z,51.93
2017-07-28T12:14:28.208Z,52.52
2017-07-28T12:16:55.649Z,53.09
2017-07-28T12:19:23.133Z,53.70
2017-07-28T12:21:50.597Z,53.46
2017-07-28T12:24:18.048Z,55.60
2017-07-28T12:26:45.509Z,55.14
2017-07-28T12:29:12.956Z,55.65
2017-07-28T12:31:40.429Z,57.38
2017-07-28T12:34:07.877Z,56.65
2017-07-28T12:36:35.344Z,56.23
2017-07-28T12:39:02.823Z,55.01
2017-07-28T12:41:30.265Z,54.46
2017-07-28T12:43:57.732Z,55.49
2017-07-28T12:46:25.192Z,55.11
2017-07-28T12:48:52.648Z,54.39
2017-07-28T12:51:20.118Z,54.65
2017-07-28T12:53:47.584Z,53.82
2017-07-28T12:56:15.057Z,54.38
2017-07-28T12:58:42.507Z,53.04
2017-07-28T13:01:10.164Z,54.22
2017-07-28T13:03:37.618Z,55.16
2017-07-28T13:06:06.309Z,54.74
2017-07-28T13:08:33.782Z,54.80
2017-07-28T13:11:01.224Z,56.19
2017-07-28T13:13:28.749Z,56.21
2017-07-28T13:15:56.193Z,55.77
2017-07-28T13:18:23.672Z,56.68
2017-07-28T13:20:51.121Z,56.91
2017-07-28T13:23:18.598Z,56.61
2017-07-28T13:25:46.078Z,59.01
2017-07-28T13:28:13.539Z,59.54
2017-07-28T13:30:41.032Z,58.94
2017-07-28T13:33:08.478Z,57.18
2017-07-28T13:35:35.997Z,57.59
2017-07-28T13:38:03.461Z,57.43
2017-07-28T13:40:30.956Z,57.00
2017-07-28T13:42:58.397Z,58.02
2017-07-28T13:45:25.841Z,57.93
2017-07-28T13:47:53.311Z,57.84
2017-07-28T13:50:20.758Z,58.77
2017-07-28T13:52:48.235Z,58.05
2017-07-28T13:55:15.677Z,57.53
2017-07-28T13:57:43.149Z,57.87
2017-07-28T14:00:10.596Z,57.55
2017-07-28T14:02:38.057Z,57.92
2017-07-28T14:05:06.298Z,58.27
2017-07-28T14:07:34.925Z,58.13
2017-07-28T14:10:02.524Z,56.92
2017-07-28T14:12:29.969Z,55.92
2017-07-28T14:14:57.652Z,56.92
2017-07-28T14:17:25.856Z,55.79
2017-07-28T14:19:53.687Z,55.40
2017-07-28T14:22:21.282Z,56.12
2017-07-28T14:24:48.724Z,55.45
2017-07-28T14:27:16.966Z,54.87
2017-07-28T14:29:44.576Z,56.09
2017-07-28T14:32:12.636Z,55.05
2017-07-28T14:34:40.079Z,55.92
2017-07-28T14:37:08.046Z,57.05
2017-07-28T14:39:36.233Z,55.63
2017-07-28T14:42:03.779Z,55.40
2017-07-28T14:44:31.475Z,55.09
2017-07-28T14:46:59.613Z,54.77
2017-07-28T14:49:27.063Z,54.09
2017-07-28T14:51:54.601Z,54.92
2017-07-28T14:54:22.048Z,55.27
2017-07-28T14:56:50.019Z,55.32
2017-07-28T14:59:17.484Z,53.95
2017-07-28T15:01:44.956Z,53.31
2017-07-28T15:04:12.504Z,53.05
2017-07-28T15:06:40.720Z,53.81
2017-07-28T15:09:08.173Z,53.84
2017-07-28T15:11:35.661Z,54.49
2017-07-28T15:14:03.168Z,55.08
2017-07-28T15:16:30.656Z,54.43
2017-07-28T15:18:58.129Z,53.26
2017-07-28T15:21:25.584Z,53.20
2017-07-28T15:23:53.048Z,53.17
2017-07-28T15:26:20.531Z,53.01
2017-07-28T15:28:48.529Z,53.40
2017-07-28T15:31:16.317Z,53.37
2017-07-28T15:33:43.827Z,54.31
2017-07-28T15:36:11.272Z,53.15
2017-07-28T15:38:38.776Z,53.45
2017-07-28T15:41:06.245Z,53.66
2017-07-28T15:43:33.891Z,53.96
2017-07-28T15:46:01.349Z,53.46
2017-07-28T15:48:29.292Z,52.74
2017-07-28T15:50:57.532Z,53.13
2017-07-28T15:53:24.978Z,53.96
2017-07-28T15:55:52.436Z,53.50
2017-07-28T15:58:19.900Z,53.98
2017-07-28T16:00:47.374Z,52.44
2017-07-28T16:03:14.828Z,53.07
2017-07-28T16:05:42.829Z,52.75
2017-07-28T16:08:10.297Z,53.14
2017-07-28T16:10:37.745Z,53.42
2017-07-28T16:13:05.309Z,53.06
2017-07-28T16:15:33.025Z,53.26
2017-07-28T16:18:00.630Z,55.48
2017-07-28T16:20:28.074Z,56.80
2017-07-28T16:22:55.525Z,58.11
2017-07-28T16:25:22.992Z,59.07
2017-07-28T16:27:50.432Z,59.93
2017-07-28T16:30:18.108Z,60.02
2017-07-28T16:32:45.856Z,60.24
2017-07-28T16:35:13.325Z,59.72
2017-07-28T16:37:40.781Z,60.56
2017-07-28T16:40:08.246Z,60.38
2017-07-28T16:42:35.693Z,60.02
2017-07-28T16:45:03.225Z,60.93
2017-07-28T16:47:30.693Z,60.94
2017-07-28T16:49:58.143Z,61.14
2017-07-28T16:52:25.600Z,61.67
2017-07-28T16:54:53.075Z,62.01
2017-07-28T16:57:20.522Z,62.58
2017-07-28T16:59:48.236Z,62.32
2017-07-28T17:02:15.701Z,61.79
2017-07-28T17:04:43.161Z,62.02
2017-07-28T17:07:10.643Z,62.51
2017-07-28T17:09:38.107Z,62.01
2017-07-28T17:12:05.545Z,62.38
2017-07-28T17:14:33.008Z,61.39
2017-07-28T17:17:01.168Z,61.68
2017-07-28T17:19:29.388Z,60.87
2017-07-28T17:21:56.841Z,60.89
2017-07-28T17:24:24.662Z,61.41
2017-07-28T17:26:52.101Z,61.61
2017-07-28T17:29:20.002Z,62.15
2017-07-28T17:31:47.468Z,62.74
2017-07-28T17:34:14.909Z,63.01
2017-07-28T17:36:42.587Z,63.24
2017-07-28T17:39:10.912Z,63.03
2017-07-28T17:41:38.369Z,63.34
2017-07-28T17:44:06.182Z,62.95
2017-07-28T17:46:33.626Z,63.09
2017-07-28T17:49:01.081Z,63.49
2017-07-28T17:51:28.545Z,63.86
2017-07-28T17:53:56.025Z,63.60
2017-07-28T17:56:23.496Z,63.81
2017-07-28T17:58:51.089Z,63.74
2017-07-28T18:01:18.542Z,64.47
2017-07-28T18:03:45.986Z,64.31
2017-07-28T18:06:13.457Z,64.54
2017-07-28T18:08:40.895Z,64.66
2017-07-28T18:11:08.354Z,63.98
2017-07-28T18:13:35.833Z,63.74
2017-07-28T18:16:03.288Z,64.00
2017-07-28T18:18:30.745Z,64.24
2017-07-28T18:20:58.212Z,63.55
2017-07-28T18:23:25.680Z,64.14
2017-07-28T18:25:53.159Z,64.12
2017-07-28T18:28:20.602Z,64.64
2017-07-28T18:30:48.557Z,64.86
2017-07-28T18:33:16.001Z,64.35
2017-07-28T18:35:43.469Z,64.83
2017-07-28T18:38:10.948Z,64.99
2017-07-28T18:40:38.389Z,65.91
2017-07-28T18:43:05.869Z,66.63
2017-07-28T18:45:33.321Z,67.42
2017-07-28T18:48:00.765Z,67.47
2017-07-28T18:50:28.228Z,68.04
2017-07-28T18:52:55.673Z,68.64
2017-07-28T18:55:23.188Z,69.44
2017-07-28T18:57:50.901Z,68.70
2017-07-28T19:00:18.359Z,69.45
2017-07-28T19:02:45.804Z,69.98
2017-07-28T19:05:13.268Z,69.84
2017-07-28T19:07:40.724Z,69.92
2017-07-28T19:10:08.181Z,70.35
2017-07-28T19:12:35.978Z,70.40
2017-07-28T19:15:03.421Z,70.68
2017-07-28T19:17:30.882Z,70.67
2017-07-28T19:19:58.349Z,71.20
2017-07-28T19:22:25.833Z,71.03
2017-07-28T19:24:53.280Z,71.32
2017-07-28T19:27:20.764Z,71.97
2017-07-28T19:29:48.208Z,71.65
2017-07-28T19:32:15.677Z,72.30
2017-07-28T19:34:43.122Z,72.94
2017-07-28T19:37:10.597Z,72.52
2017-07-28T19:39:38.044Z,73.10
2017-07-28T19:42:05.536Z,73.95
2017-07-28T19:44:32.985Z,74.22
2017-07-28T19:47:00.438Z,74.79
2017-07-28T19:49:28.173Z,74.40
2017-07-28T19:51:55.625Z,74.55
2017-07-28T19:54:23.072Z,74.97
2017-07-28T19:56:51.185Z,74.84
2017-07-28T19:59:18.631Z,75.48
2017-07-28T20:01:46.077Z,75.88
2017-07-28T20:04:13.545Z,76.22
2017-07-28T20:06:41.018Z,76.63
2017-07-28T20:09:08.544Z,77.53
2017-07-28T20:14:12.909Z,79.09
2017-07-28T20:16:40.373Z,79.90
2017-07-28T20:19:07.904Z,80.72
2017-07-28T20:21:35.353Z,80.88
2017-07-28T20:24:03.054Z,81.22
2017-07-28T20:26:30.504Z,81.97
2017-07-28T20:28:57.955Z,81.48
2017-07-28T20:31:25.751Z,80.62
2017-07-28T20:33:53.192Z,80.38
2017-07-28T20:36:20.644Z,81.43
2017-07-28T20:38:48.982Z,82.26
2017-07-28T20:41:16.439Z,82.96
2017-07-28T20:43:43.921Z,83.55
2017-07-28T20:46:11.376Z,84.14
2017-07-28T20:48:38.864Z,84.29
2017-07-28T20:51:06.350Z,85.21
2017-07-28T20:53:33.916Z,85.51
2017-07-28T20:56:01.406Z,85.33
2017-07-28T20:58:28.882Z,84.30
2017-07-28T21:00:56.354Z,85.74
2017-07-28T21:03:23.817Z,86.10
2017-07-28T21:05:51.290Z,86.75
2017-07-28T21:08:18.749Z,86.98
2017-07-28T21:10:46.227Z,87.41
2017-07-28T21:13:13.669Z,86.75
2017-07-28T21:15:41.153Z,86.92
2017-07-28T21:18:08.621Z,87.21
2017-07-28T21:20:36.077Z,86.99
2017-07-28T21:23:03.944Z,87.04
2017-07-28T21:25:31.395Z,87.82
2017-07-28T21:27:58.840Z,87.92
2017-07-28T21:30:26.326Z,88.18
2017-07-28T21:32:53.776Z,88.18
2017-07-28T21:35:21.245Z,88.98
2017-07-28T21:37:48.688Z,89.47
2017-07-28T21:40:16.141Z,89.23
2017-07-28T21:42:43.928Z,88.78
2017-07-28T21:45:11.385Z,89.32
2017-07-28T21:47:38.849Z,88.13
2017-07-28T21:50:06.703Z,87.19
2017-07-28T21:52:34.298Z,87.24
2017-07-28T21:55:01.954Z,87.99
2017-07-28T21:57:29.452Z,88.87
2017-07-28T21:59:56.901Z,89.90
2017-07-28T22:02:24.551Z,90.79
2017-07-28T22:04:52.042Z,90.42
2017-07-28T22:07:19.500Z,90.40
2017-07-28T22:09:46.996Z,90.55
2017-07-28T22:12:14.491Z,91.09
2017-07-28T22:14:41.968Z,91.54
2017-07-28T22:17:09.459Z,91.79
2017-07-28T22:19:37.376Z,91.70
2017-07-28T22:22:04.852Z,91.63
2017-07-28T22:24:32.302Z,91.83
2017-07-28T22:26:59.794Z,92.05
2017-07-28T22:29:27.277Z,92.31
2017-07-28T22:31:55.141Z,92.52
2017-07-28T22:34:22.589Z,92.26
2017-07-28T22:36:50.125Z,92.77
2017-07-28T22:39:17.603Z,92.55
2017-07-28T22:41:45.041Z,92.91
2017-07-28T22:44:12.520Z,93.29
2017-07-28T22:46:39.973Z,93.27
2017-07-28T22:49:09.041Z,93.65
2017-07-28T22:51:36.585Z,93.89
2017-07-28T22:54:04.576Z,94.07
2017-07-28T22:56:32.044Z,93.69
2017-07-28T22:58:59.497Z,92.95
2017-07-28T23:01:27.094Z,92.81
2017-07-28T23:03:54.541Z,92.78
2017-07-28T23:06:21.996Z,93.21
2017-07-28T23:08:49.477Z,93.56
2017-07-28T23:11:17.032Z,93.85
2017-07-28T23:13:44.525Z,94.21
2017-07-28T23:16:12.012Z,94.17
2017-07-28T23:18:39.485Z,94.34
2017-07-28T23:21:06.939Z,94.05
2017-07-28T23:23:34.407Z,93.91
2017-07-28T23:26:01.885Z,93.86
2017-07-28T23:28:29.621Z,94.71
2017-07-28T23:30:57.065Z,94.97
2017-07-28T23:33:24.517Z,94.72
2017-07-28T23:35:51.989Z,94.82
2017-07-28T23:38:19.504Z,94.70
2017-07-28T23:40:46.971Z,94.88
2017-07-28T23:43:14.433Z,93.93
2017-07-28T23:45:41.914Z,92.90
2017-07-28T23:48:09.362Z,92.16
2017-07-28T23:50:36.884Z,92.83
2017-07-28T23:53:04.370Z,93.42
2017-07-28T23:55:31.837Z,93.56
2017-07-28T23:57:59.847Z,93.95
